createdAt,value
2023-03-21T00:01:53.008Z,12.27
2023-03-21T00:04:21.064Z,13.02
2023-03-21T00:06:48.118Z,14.13
2023-03-21T00:09:15.597Z,16.02
2023-03-21T00:11:42.847Z,18.65
2023-03-21T00:14:14.447Z,17.95
2023-03-21T00:17:01.344Z,19.08
2023-03-21T00:22:13.834Z,19.75
2023-03-21T00:24:41.145Z,19.45
2023-03-21T00:27:34.586Z,19.10
2023-03-21T00:29:55.651Z,19.52
2023-03-21T00:32:22.861Z,20.17
2023-03-21T00:35:38.242Z,19.10
2023-03-21T00:37:37.324Z,18.60
2023-03-21T00:40:23.120Z,19.23
2023-03-21T00:42:52.796Z,18.83
2023-03-21T00:45:21.949Z,17.88
2023-03-21T00:47:49.148Z,17.40
2023-03-21T00:50:16.450Z,19.38
2023-03-21T00:52:43.431Z,19.05
2023-03-21T00:55:14.825Z,20.98
2023-03-21T00:57:45.290Z,22.55
2023-03-21T01:00:15.929Z,26.42
2023-03-21T01:03:02.604Z,25.23
2023-03-21T01:05:57.340Z,24.05
2023-03-21T01:08:29.528Z,21.70
2023-03-21T01:11:02.688Z,20.33
2023-03-21T01:13:29.938Z,19.80
2023-03-21T01:15:57.536Z,19.00
2023-03-21T01:18:27.415Z,19.05
2023-03-21T01:20:56.971Z,19.23
2023-03-21T01:23:25.918Z,20.10
2023-03-21T01:25:54.789Z,19.88
2023-03-21T01:28:22.678Z,18.88
2023-03-21T01:30:51.359Z,19.92
2023-03-21T01:33:20.298Z,19.95
2023-03-21T01:35:53.454Z,19.33
2023-03-21T01:38:28.271Z,20.23
2023-03-21T01:40:55.822Z,19.00
2023-03-21T01:43:35.469Z,19.52
2023-03-21T01:46:22.067Z,19.23
2023-03-21T01:49:25.070Z,18.95
2023-03-21T01:52:10.179Z,18.80
2023-03-21T01:54:43.189Z,17.95
2023-03-21T01:59:45.259Z,16.77
2023-03-21T02:02:33.791Z,17.23
2023-03-21T02:05:15.761Z,15.25
2023-03-21T02:07:44.030Z,17.15
2023-03-21T02:10:16.972Z,16.63
2023-03-21T02:12:48.566Z,17.98
2023-03-21T02:15:16.780Z,17.25
2023-03-21T02:18:07.612Z,16.60
2023-03-21T02:20:58.671Z,16.05
2023-03-21T02:23:33.661Z,16.27
2023-03-21T02:26:19.696Z,17.40
2023-03-21T02:29:08.700Z,15.48
2023-03-21T02:31:52.035Z,16.00
2023-03-21T02:34:52.668Z,14.70
2023-03-21T02:37:37.689Z,15.10
2023-03-21T02:40:32.211Z,15.45
2023-03-21T02:43:24.319Z,16.65
2023-03-21T02:46:00.145Z,15.60
2023-03-21T02:49:01.195Z,16.52
2023-03-21T02:51:32.384Z,16.45
2023-03-21T02:54:26.385Z,15.52
2023-03-21T02:56:54.185Z,14.95
2023-03-21T02:59:25.115Z,15.93
2023-03-21T03:01:53.628Z,16.60
2023-03-21T03:04:23.736Z,16.40
2023-03-21T03:07:25.647Z,16.58
2023-03-21T03:10:07.956Z,15.90
2023-03-21T03:12:40.311Z,15.77
2023-03-21T03:15:28.738Z,15.68
2023-03-21T03:18:31.077Z,15.95
2023-03-21T03:21:21.378Z,14.55
2023-03-21T03:23:52.750Z,15.05
2023-03-21T03:26:23.283Z,15.18
2023-03-21T03:28:54.124Z,16.10
2023-03-21T03:31:27.339Z,15.63
2023-03-21T03:34:07.154Z,15.35
2023-03-21T03:36:42.262Z,15.07
2023-03-21T03:39:16.124Z,15.27
2023-03-21T03:42:10.089Z,14.80
2023-03-21T03:44:48.774Z,16.85
2023-03-21T03:47:50.709Z,15.95
2023-03-21T03:50:38.840Z,15.18
2023-03-21T03:53:38.592Z,15.05
2023-03-21T03:56:09.785Z,15.13
2023-03-21T03:58:45.648Z,14.55
2023-03-21T04:01:17.691Z,15.27
2023-03-21T04:03:54.449Z,16.83
2023-03-21T04:06:24.410Z,15.70
2023-03-21T04:08:52.083Z,15.20
2023-03-21T04:11:19.173Z,14.40
2023-03-21T04:13:50.732Z,15.68
2023-03-21T04:16:23.442Z,16.67
2023-03-21T04:18:52.694Z,15.50
2023-03-21T04:21:21.625Z,15.70
2023-03-21T04:23:48.464Z,16.60
2023-03-21T04:26:15.623Z,15.55
2023-03-21T04:28:54.221Z,16.83
2023-03-21T04:31:41.636Z,15.45
2023-03-21T04:34:13.135Z,15.70
2023-03-21T04:36:49.670Z,15.35
2023-03-21T04:39:18.418Z,15.43
2023-03-21T04:41:50.000Z,15.35
2023-03-21T04:44:18.550Z,14.57
2023-03-21T04:46:46.526Z,14.60
2023-03-21T04:49:13.854Z,16.75
2023-03-21T04:51:45.177Z,14.57
2023-03-21T04:54:17.875Z,15.90
2023-03-21T04:56:44.882Z,15.18
2023-03-21T04:59:15.877Z,15.73
2023-03-21T05:01:44.037Z,16.27
2023-03-21T05:04:13.595Z,16.95
2023-03-21T05:09:09.779Z,16.85
2023-03-21T05:11:39.271Z,16.55
2023-03-21T05:14:09.179Z,17.42
2023-03-21T05:16:48.559Z,15.85
2023-03-21T05:19:19.299Z,15.70
2023-03-21T05:21:48.952Z,16.35
2023-03-21T05:24:22.030Z,16.33
2023-03-21T05:26:50.758Z,18.20
2023-03-21T05:31:53.311Z,15.98
2023-03-21T05:34:21.144Z,17.00
2023-03-21T05:36:49.374Z,16.25
2023-03-21T05:39:17.115Z,15.52
2023-03-21T05:41:54.746Z,14.13
2023-03-21T05:44:21.831Z,15.57
2023-03-21T05:46:48.835Z,15.07
2023-03-21T05:49:19.201Z,19.90
2023-03-21T05:51:46.705Z,19.98
2023-03-21T05:54:16.817Z,18.55
2023-03-21T05:56:47.227Z,17.50
2023-03-21T05:59:22.752Z,18.88
2023-03-21T06:01:52.657Z,17.15
2023-03-21T06:04:20.755Z,15.32
2023-03-21T06:06:47.748Z,15.05
2023-03-21T06:09:15.037Z,15.43
2023-03-21T06:11:49.832Z,17.42
2023-03-21T06:14:24.790Z,16.63
2023-03-21T06:17:27.185Z,16.52
2023-03-21T06:20:01.181Z,15.30
2023-03-21T06:22:32.301Z,15.90
2023-03-21T06:25:01.646Z,14.02
2023-03-21T06:27:30.036Z,14.75
2023-03-21T06:29:59.791Z,14.85
2023-03-21T06:32:29.413Z,13.35
2023-03-21T06:35:01.587Z,12.65
2023-03-21T06:37:30.124Z,12.10
2023-03-21T06:39:57.351Z,12.45
2023-03-21T06:42:25.468Z,11.70
2023-03-21T06:44:58.810Z,11.65
2023-03-21T06:47:27.069Z,12.32
2023-03-21T06:49:54.135Z,12.35
2023-03-21T06:52:21.336Z,12.35
2023-03-21T06:54:49.079Z,13.32
2023-03-21T06:57:20.586Z,12.82
2023-03-21T06:59:48.438Z,12.63
2023-03-21T07:02:19.551Z,11.27
2023-03-21T07:05:01.593Z,9.95
2023-03-21T07:07:30.790Z,10.48
2023-03-21T07:09:57.658Z,11.77
2023-03-21T07:12:26.749Z,15.55
2023-03-21T07:15:14.538Z,19.27
2023-03-21T07:17:43.664Z,20.52
2023-03-21T07:20:12.740Z,20.38
2023-03-21T07:22:40.634Z,23.00
2023-03-21T07:25:08.322Z,24.83
2023-03-21T07:27:41.402Z,25.98
2023-03-21T07:30:10.518Z,25.90
2023-03-21T07:32:39.719Z,23.50
2023-03-21T07:35:10.578Z,24.70
2023-03-21T07:37:38.285Z,25.05
2023-03-21T07:40:10.837Z,22.73
2023-03-21T07:42:41.465Z,24.02
2023-03-21T07:45:12.933Z,23.20
2023-03-21T07:47:40.881Z,21.70
2023-03-21T07:50:08.283Z,20.27
2023-03-21T07:52:35.273Z,19.85
2023-03-21T07:55:03.420Z,19.83
2023-03-21T07:57:30.640Z,18.48
2023-03-21T08:00:00.715Z,17.38
2023-03-21T08:02:28.150Z,17.05
2023-03-21T08:04:55.132Z,18.40
2023-03-21T08:07:22.240Z,15.57
2023-03-21T08:09:49.112Z,14.38
2023-03-21T08:12:16.894Z,14.38
2023-03-21T08:14:43.820Z,13.90
2023-03-21T08:17:10.892Z,13.98
2023-03-21T08:19:37.786Z,13.13
2023-03-21T08:22:06.786Z,13.48
2023-03-21T08:24:34.185Z,13.13
2023-03-21T08:27:02.391Z,13.85
2023-03-21T08:29:29.366Z,12.55
2023-03-21T08:31:56.305Z,12.88
2023-03-21T08:34:23.312Z,13.45
2023-03-21T08:36:50.160Z,11.75
2023-03-21T08:39:17.394Z,10.93
2023-03-21T08:41:46.427Z,11.10
2023-03-21T08:44:14.017Z,9.95
2023-03-21T08:46:40.999Z,11.25
2023-03-21T08:49:08.103Z,11.35
2023-03-21T08:51:37.679Z,11.77
2023-03-21T08:54:04.806Z,11.35
2023-03-21T08:56:31.955Z,11.93
2023-03-21T08:58:59.307Z,11.70
2023-03-21T09:01:26.338Z,10.95
2023-03-21T09:03:53.586Z,11.88
2023-03-21T09:06:20.720Z,11.50
2023-03-21T09:08:48.417Z,10.73
2023-03-21T09:11:15.621Z,10.57
2023-03-21T09:13:42.497Z,10.55
2023-03-21T09:16:09.805Z,9.32
2023-03-21T09:18:57.297Z,11.10
2023-03-21T09:21:24.730Z,10.52
2023-03-21T09:23:56.293Z,10.80
2023-03-21T09:26:25.366Z,10.23
2023-03-21T09:28:53.235Z,10.60
2023-03-21T09:31:23.498Z,10.20
2023-03-21T09:33:51.255Z,10.48
2023-03-21T09:36:21.219Z,11.30
2023-03-21T09:38:50.038Z,10.23
2023-03-21T09:41:50.700Z,10.20
2023-03-21T09:44:39.372Z,11.32
2023-03-21T09:47:22.160Z,12.25
2023-03-21T09:50:11.191Z,11.10
2023-03-21T09:52:56.906Z,10.70
2023-03-21T09:55:30.837Z,10.93
2023-03-21T09:58:30.716Z,11.13
2023-03-21T10:01:05.316Z,10.82
2023-03-21T10:03:36.972Z,11.38
2023-03-21T10:06:16.066Z,10.77
2023-03-21T10:08:47.142Z,11.93
2023-03-21T10:11:32.439Z,11.68
2023-03-21T10:14:04.495Z,11.77
2023-03-21T10:16:41.601Z,11.48
2023-03-21T10:19:13.704Z,12.32
2023-03-21T10:22:03.469Z,12.02
2023-03-21T10:24:34.108Z,12.25
2023-03-21T10:27:02.887Z,11.60
2023-03-21T10:29:42.303Z,11.80
2023-03-21T10:34:53.533Z,11.52
2023-03-21T10:37:21.175Z,12.68
2023-03-21T10:39:51.548Z,12.32
2023-03-21T10:42:24.970Z,12.30
2023-03-21T10:44:57.677Z,11.82
2023-03-21T10:47:31.879Z,11.27
2023-03-21T10:50:10.540Z,10.77
2023-03-21T10:52:45.048Z,12.10
2023-03-21T10:55:18.643Z,12.15
2023-03-21T10:57:47.304Z,11.63
2023-03-21T11:00:25.817Z,12.13
2023-03-21T11:02:54.415Z,11.27
2023-03-21T11:05:27.005Z,10.77
2023-03-21T11:08:15.501Z,10.73
2023-03-21T11:11:01.316Z,10.30
2023-03-21T11:13:43.954Z,10.18
2023-03-21T11:16:26.417Z,9.00
2023-03-21T11:19:01.357Z,8.43
2023-03-21T11:21:35.313Z,8.55
2023-03-21T11:24:03.754Z,8.55
2023-03-21T11:26:37.586Z,6.40
2023-03-21T11:29:23.560Z,6.85
2023-03-21T11:31:50.733Z,7.47
2023-03-21T11:34:36.105Z,7.40
2023-03-21T11:37:03.958Z,6.65
2023-03-21T11:39:40.142Z,6.97
2023-03-21T11:42:27.016Z,6.82
2023-03-21T11:45:01.910Z,6.97
2023-03-21T11:47:31.615Z,6.18
2023-03-21T11:50:04.918Z,4.90
2023-03-21T11:52:41.811Z,6.20
2023-03-21T11:55:22.047Z,5.50
2023-03-21T11:58:05.280Z,5.43
2023-03-21T12:00:51.821Z,5.28
2023-03-21T12:03:48.475Z,4.85
2023-03-21T12:06:38.477Z,5.35
2023-03-21T12:09:18.678Z,6.07
2023-03-21T12:12:01.553Z,4.90
2023-03-21T12:14:55.086Z,5.30
2023-03-21T12:17:21.977Z,4.70
2023-03-21T12:19:57.662Z,4.88
2023-03-21T12:22:41.725Z,4.35
2023-03-21T12:25:32.899Z,5.13
2023-03-21T12:28:32.131Z,5.20
2023-03-21T12:31:02.858Z,5.30
2023-03-21T12:33:54.748Z,5.10
2023-03-21T12:36:27.750Z,5.00
2023-03-21T12:39:18.000Z,4.30
2023-03-21T12:41:50.990Z,4.75
2023-03-21T12:44:22.564Z,5.15
2023-03-21T12:47:00.982Z,4.32
2023-03-21T12:49:34.413Z,4.43
2023-03-21T12:52:27.459Z,5.28
2023-03-21T12:55:06.649Z,5.22
2023-03-21T12:57:56.439Z,4.88
2023-03-21T13:00:27.615Z,5.10
2023-03-21T13:03:14.054Z,4.78
2023-03-21T13:05:46.974Z,5.35
2023-03-21T13:08:21.243Z,5.40
2023-03-21T13:10:48.452Z,5.40
2023-03-21T13:13:36.799Z,5.13
2023-03-21T13:16:10.809Z,5.15
2023-03-21T13:18:46.820Z,5.07
2023-03-21T13:21:31.435Z,4.75
2023-03-21T13:24:26.193Z,4.90
2023-03-21T13:27:00.850Z,4.97
2023-03-21T13:29:44.798Z,4.57
2023-03-21T13:32:30.951Z,5.05
2023-03-21T13:35:19.924Z,4.90
2023-03-21T13:37:53.204Z,5.40
2023-03-21T13:40:26.248Z,4.30
2023-03-21T13:42:57.202Z,5.30
2023-03-21T13:45:46.540Z,5.50
2023-03-21T13:51:37.731Z,5.78
2023-03-21T13:54:07.619Z,4.45
2023-03-21T13:56:46.727Z,4.70
2023-03-21T13:59:36.587Z,4.68
2023-03-21T14:02:19.897Z,4.45
2023-03-21T14:05:04.071Z,5.10
2023-03-21T14:07:41.860Z,4.57
2023-03-21T14:10:19.969Z,4.82
2023-03-21T14:12:47.577Z,4.47
2023-03-21T14:15:30.515Z,4.40
2023-03-21T14:18:10.816Z,4.72
2023-03-21T14:20:59.627Z,5.22
2023-03-21T14:23:26.710Z,5.32
2023-03-21T14:25:53.866Z,5.15
2023-03-21T14:28:23.017Z,4.88
2023-03-21T14:30:54.871Z,5.25
2023-03-21T14:33:51.971Z,5.03
2023-03-21T14:36:28.975Z,5.68
2023-03-21T14:39:20.325Z,5.10
2023-03-21T14:42:02.362Z,5.40
2023-03-21T14:44:53.402Z,5.70
2023-03-21T14:47:27.451Z,5.40
2023-03-21T14:49:56.534Z,5.75
2023-03-21T14:52:43.365Z,5.10
2023-03-21T14:55:16.429Z,5.80
2023-03-21T14:57:43.650Z,5.65
2023-03-21T15:00:23.799Z,6.18
2023-03-21T15:02:52.296Z,5.25
2023-03-21T15:05:32.839Z,5.70
2023-03-21T15:08:08.871Z,6.07
2023-03-21T15:10:38.806Z,6.20
2023-03-21T15:13:18.729Z,5.97
2023-03-21T15:15:47.626Z,6.10
2023-03-21T15:18:25.497Z,6.10
2023-03-21T15:20:55.924Z,6.25
2023-03-21T15:23:30.986Z,6.38
2023-03-21T15:26:02.114Z,6.57
2023-03-21T15:28:29.247Z,6.60
2023-03-21T15:30:57.619Z,7.65
2023-03-21T15:33:26.192Z,7.75
2023-03-21T15:35:56.544Z,7.83
2023-03-21T15:38:41.633Z,7.63
2023-03-21T15:41:22.437Z,8.10
2023-03-21T15:44:06.054Z,7.82
2023-03-21T15:46:53.351Z,11.27
2023-03-21T15:49:31.234Z,10.45
2023-03-21T15:52:01.268Z,10.75
2023-03-21T15:54:41.762Z,9.45
2023-03-21T15:57:23.815Z,8.05
2023-03-21T15:59:56.650Z,10.27
2023-03-21T16:02:28.975Z,10.70
2023-03-21T16:04:58.807Z,8.73
2023-03-21T16:07:26.810Z,9.00
2023-03-21T16:10:04.609Z,9.25
2023-03-21T16:12:31.670Z,9.48
2023-03-21T16:14:58.965Z,9.05
2023-03-21T16:17:38.171Z,9.07
2023-03-21T16:20:20.525Z,8.98
2023-03-21T16:22:48.197Z,8.90
2023-03-21T16:25:15.376Z,10.13
2023-03-21T16:27:42.739Z,9.93
2023-03-21T16:30:13.677Z,11.02
2023-03-21T16:32:41.168Z,11.40
2023-03-21T16:35:08.672Z,11.23
2023-03-21T16:37:36.024Z,11.10
2023-03-21T16:40:06.044Z,11.45
2023-03-21T16:42:33.098Z,12.40
2023-03-21T16:45:00.101Z,12.55
2023-03-21T16:47:27.168Z,11.93
2023-03-21T16:49:55.715Z,11.57
2023-03-21T16:52:25.853Z,11.97
2023-03-21T16:54:56.159Z,12.27
2023-03-21T16:57:29.113Z,12.57
2023-03-21T16:59:56.406Z,13.00
2023-03-21T17:02:24.935Z,12.07
2023-03-21T17:04:52.033Z,11.73
2023-03-21T17:07:19.040Z,12.40
2023-03-21T17:09:48.022Z,13.13
2023-03-21T17:12:16.601Z,13.73
2023-03-21T17:14:45.626Z,13.98
2023-03-21T17:17:14.082Z,15.02
2023-03-21T17:19:42.632Z,13.32
2023-03-21T17:22:12.500Z,13.30
2023-03-21T17:24:40.633Z,13.35
2023-03-21T17:27:08.814Z,14.07
2023-03-21T17:29:35.906Z,13.27
2023-03-21T17:32:03.684Z,13.13
2023-03-21T17:34:33.330Z,13.57
2023-03-21T17:37:01.718Z,13.63
2023-03-21T17:39:29.064Z,14.75
2023-03-21T17:41:57.069Z,15.75
2023-03-21T17:44:25.827Z,15.07
2023-03-21T17:46:53.397Z,15.73
2023-03-21T17:49:21.156Z,16.80
2023-03-21T17:51:48.333Z,15.35
2023-03-21T17:54:15.479Z,15.60
2023-03-21T17:56:42.426Z,19.55
2023-03-21T17:59:13.261Z,20.00
2023-03-21T18:01:43.898Z,22.13
2023-03-21T18:04:11.577Z,20.00
2023-03-21T18:06:41.794Z,20.30
2023-03-21T18:09:13.805Z,23.35
2023-03-21T18:11:47.422Z,24.65
2023-03-21T18:14:18.579Z,23.02
2023-03-21T18:16:50.793Z,19.67
2023-03-21T18:19:18.145Z,18.05
2023-03-21T18:21:46.063Z,17.13
2023-03-21T18:24:16.194Z,17.70
2023-03-21T18:26:44.044Z,16.70
2023-03-21T18:32:07.317Z,16.27
2023-03-21T18:34:38.776Z,17.65
2023-03-21T18:37:08.412Z,18.85
2023-03-21T18:39:36.528Z,17.77
2023-03-21T18:42:05.034Z,17.35
2023-03-21T18:44:40.565Z,15.90
2023-03-21T18:47:08.556Z,16.67
2023-03-21T18:50:10.396Z,15.50
2023-03-21T18:52:23.509Z,16.10
2023-03-21T18:54:50.837Z,16.38
2023-03-21T18:57:35.866Z,17.67
2023-03-21T19:00:12.801Z,15.60
2023-03-21T19:02:46.373Z,18.15
2023-03-21T19:05:17.351Z,19.55
2023-03-21T19:07:44.645Z,18.50
2023-03-21T19:10:18.146Z,16.88
2023-03-21T19:12:52.732Z,17.50
2023-03-21T19:15:25.218Z,18.02
2023-03-21T19:20:46.605Z,17.73
2023-03-21T19:23:14.244Z,17.23
2023-03-21T19:25:42.818Z,17.23
2023-03-21T19:28:09.990Z,17.05
2023-03-21T19:30:37.675Z,17.48
2023-03-21T19:33:05.487Z,16.63
2023-03-21T19:35:35.343Z,17.48
2023-03-21T19:38:02.496Z,17.83
2023-03-21T19:40:29.402Z,18.38
2023-03-21T19:42:57.647Z,20.00
2023-03-21T19:45:25.527Z,20.50
2023-03-21T19:47:52.588Z,18.52
2023-03-21T19:53:06.464Z,18.92
2023-03-21T19:55:34.004Z,17.02
2023-03-21T19:58:02.118Z,18.13
2023-03-21T20:00:30.243Z,17.73
2023-03-21T20:02:57.342Z,17.80
2023-03-21T20:05:25.740Z,17.08
2023-03-21T20:07:57.246Z,18.40
2023-03-21T20:10:28.327Z,18.75
2023-03-21T20:12:56.139Z,18.38
2023-03-21T20:15:26.794Z,18.75
2023-03-21T20:17:55.979Z,18.40
2023-03-21T20:20:23.854Z,18.25
2023-03-21T20:23:06.424Z,18.02
2023-03-21T20:25:35.191Z,19.90
2023-03-21T20:28:25.539Z,17.70
2023-03-21T20:30:57.024Z,18.50
2023-03-21T20:33:25.403Z,17.52
2023-03-21T20:38:51.986Z,17.77
2023-03-21T20:41:19.169Z,17.98
2023-03-21T20:46:34.368Z,18.75
2023-03-21T20:49:02.262Z,18.27
2023-03-21T20:52:36.915Z,19.00
2023-03-21T20:54:17.860Z,18.05
2023-03-21T20:56:45.090Z,20.37
2023-03-21T20:59:23.171Z,21.73
2023-03-21T21:01:53.075Z,19.77
2023-03-21T21:04:20.735Z,20.08
2023-03-21T21:06:48.475Z,19.48
2023-03-21T21:09:16.533Z,19.42
2023-03-21T21:12:06.926Z,20.10
2023-03-21T21:14:30.583Z,18.77
2023-03-21T21:16:58.941Z,20.60
2023-03-21T21:19:26.291Z,24.70
2023-03-21T21:21:53.275Z,21.10
2023-03-21T21:24:20.374Z,21.20
2023-03-21T21:26:47.402Z,21.67
2023-03-21T21:29:17.234Z,21.40
2023-03-21T21:31:46.805Z,22.50
2023-03-21T21:36:45.007Z,20.60
2023-03-21T21:39:16.161Z,20.83
2023-03-21T21:41:43.483Z,21.35
2023-03-21T21:44:11.299Z,19.35
2023-03-21T21:46:38.876Z,23.58
2023-03-21T21:49:05.814Z,21.73
2023-03-21T21:51:38.016Z,21.13
2023-03-21T21:54:05.948Z,22.02
2023-03-21T21:56:38.498Z,22.35
2023-03-21T21:59:05.872Z,23.80
2023-03-21T22:01:38.755Z,23.08
2023-03-21T22:04:10.989Z,22.67
2023-03-21T22:06:38.169Z,22.48
2023-03-21T22:09:05.700Z,19.35
2023-03-21T22:11:33.648Z,18.95
2023-03-21T22:14:00.828Z,18.30
2023-03-21T22:16:27.943Z,14.45
2023-03-21T22:18:54.913Z,11.63
2023-03-21T22:21:22.448Z,9.00
2023-03-21T22:23:49.364Z,9.05
2023-03-21T22:26:16.650Z,8.63
2023-03-21T22:28:43.908Z,8.07
2023-03-21T22:31:14.501Z,6.22
2023-03-21T22:33:42.634Z,6.35
2023-03-21T22:36:09.905Z,7.22
2023-03-21T22:38:38.302Z,7.03
2023-03-21T22:41:06.654Z,7.68
2023-03-21T22:43:35.422Z,7.00
2023-03-21T22:46:04.378Z,7.13
2023-03-21T22:48:32.066Z,7.43
2023-03-21T22:51:00.487Z,8.18
2023-03-21T22:53:28.000Z,7.82
2023-03-21T22:55:55.057Z,7.75
2023-03-21T22:58:22.342Z,7.70
2023-03-21T23:00:49.384Z,8.00
2023-03-21T23:03:17.104Z,8.05
2023-03-21T23:05:45.144Z,8.50
2023-03-21T23:08:13.154Z,9.10
2023-03-21T23:10:43.416Z,9.32
2023-03-21T23:13:11.342Z,8.65
2023-03-21T23:15:39.599Z,8.98
2023-03-21T23:18:07.010Z,9.02
2023-03-21T23:20:34.022Z,9.10
2023-03-21T23:23:00.921Z,8.57
2023-03-21T23:25:29.016Z,7.65
2023-03-21T23:27:56.205Z,8.02
2023-03-21T23:30:23.161Z,7.28
2023-03-21T23:32:50.295Z,7.95
2023-03-21T23:35:17.680Z,7.15
2023-03-21T23:37:51.971Z,6.75
2023-03-21T23:40:20.936Z,7.00
2023-03-21T23:42:47.876Z,7.10
2023-03-21T23:45:15.634Z,7.22
2023-03-21T23:47:42.827Z,7.05
2023-03-21T23:50:10.910Z,7.40
2023-03-21T23:52:38.693Z,7.07
2023-03-21T23:55:06.434Z,6.43
2023-03-21T23:57:33.609Z,6.50
